Time;durP1;ratioP1;P1;durP2;ratioP2;P2;SDS_P1;SDS_P2;PMS_P1;PMS_P2;Temp;Humidity;BMP_temperature;BMP_pressure;BME280_temperature;BME280_humidity;BME280_pressure;Samples;Min_cycle;Max_cycle;Signal;HPM_P1;HPM_P2
2024/04/17 00:00:07;;;;;;;1.40;0.67;;;;;;;6.83;100.00;97258.78;5439376;26;20880;-77
2024/04/17 00:02:33;;;;;;;0.70;0.70;;;;;;;6.77;100.00;97253.13;5440931;26;20232;-77
2024/04/17 00:05:01;;;;;;;1.10;0.90;;;;;;;6.75;100.00;97255.00;5440772;26;20244;-78
2024/04/17 00:07:26;;;;;;;0.80;0.80;;;;;;;6.82;100.00;97262.34;5440888;26;20228;-77
2024/04/17 00:09:54;;;;;;;2.43;0.80;;;;;;;6.80;100.00;97253.75;5439700;26;20359;-77
2024/04/17 00:12:21;;;;;;;1.73;1.00;;;;;;;6.79;100.00;97256.47;5440562;26;20334;-77
2024/04/17 00:14:49;;;;;;;1.17;1.03;;;;;;;6.80;100.00;97255.53;5440156;26;20283;-77
2024/04/17 00:17:17;;;;;;;1.00;0.90;;;;;;;6.64;100.00;97250.47;5439847;26;20605;-77
2024/04/17 00:19:45;;;;;;;0.80;0.80;;;;;;;6.66;100.00;97253.00;5437212;26;20239;-77
2024/04/17 00:22:11;;;;;;;0.70;0.70;;;;;;;6.63;100.00;97248.81;5439686;26;20357;-77
2024/04/17 00:24:39;;;;;;;0.80;0.80;;;;;;;6.65;100.00;97249.53;5439428;26;20667;-77
2024/04/17 00:27:05;;;;;;;0.90;0.80;;;;;;;6.69;100.00;97253.63;5439559;26;20281;-77
2024/04/17 00:29:33;;;;;;;2.50;1.00;;;;;;;6.72;100.00;97252.59;5439602;26;20351;-77
2024/04/17 00:31:58;;;;;;;0.80;0.80;;;;;;;6.76;100.00;97251.41;5440015;26;20292;-77
2024/04/17 00:34:29;;;;;;;0.90;0.90;;;;;;;6.78;100.00;97245.13;5440019;26;20528;-77
2024/04/17 00:36:55;;;;;;;1.17;1.07;;;;;;;6.79;100.00;97246.81;5439837;26;20280;-77
2024/04/17 00:39:23;;;;;;;1.77;1.20;;;;;;;6.77;100.00;97246.06;5439670;26;20319;-76
2024/04/17 00:41:48;;;;;;;1.10;1.00;;;;;;;6.85;100.00;97249.00;5439485;26;20323;-77
2024/04/17 00:44:17;;;;;;;1.90;1.10;;;;;;;6.87;100.00;97244.50;5439848;26;20650;-77
2024/04/17 00:46:43;;;;;;;1.07;1.00;;;;;;;6.85;100.00;97241.13;5439914;26;20337;-77
2024/04/17 00:49:12;;;;;;;1.20;1.10;;;;;;;6.82;100.00;97251.84;5439695;26;20216;-77
2024/04/17 00:51:41;;;;;;;1.30;1.20;;;;;;;6.84;100.00;97244.69;5439032;26;20349;-77
2024/04/17 00:54:10;;;;;;;2.80;1.50;;;;;;;6.85;100.00;97246.38;5439695;26;20324;-77
2024/04/17 00:56:35;;;;;;;1.60;1.50;;;;;;;6.86;100.00;97241.97;5439443;26;20349;-78
2024/04/17 00:59:04;;;;;;;1.90;1.47;;;;;;;6.84;100.00;97242.06;5439639;26;20243;-77
2024/04/17 01:01:30;;;;;;;1.73;1.63;;;;;;;6.85;100.00;97241.13;5439753;26;20624;-77
2024/04/17 01:03:58;;;;;;;1.50;1.40;;;;;;;6.82;100.00;97238.72;5439320;26;20327;-77
2024/04/17 01:06:23;;;;;;;2.70;1.53;;;;;;;6.82;100.00;97245.75;5439577;26;20352;-77
2024/04/17 01:08:54;;;;;;;1.70;1.60;;;;;;;6.84;100.00;97239.44;5439252;26;20327;-77
2024/04/17 01:11:20;;;;;;;1.90;1.70;;;;;;;6.81;100.00;97233.56;5441158;26;20288;-76
2024/04/17 01:13:48;;;;;;;1.87;1.77;;;;;;;6.80;100.00;97235.38;5444032;26;20304;-78
2024/04/17 01:16:13;;;;;;;2.10;1.90;;;;;;;6.80;100.00;97239.78;5443312;26;20228;-78
2024/04/17 01:18:44;;;;;;;2.23;2.03;;;;;;;6.78;100.00;97226.75;5444379;26;20319;-78
2024/04/17 01:21:09;;;;;;;2.43;1.97;;;;;;;6.77;100.00;97232.13;5444393;26;20293;-78
2024/04/17 01:23:37;;;;;;;2.07;1.80;;;;;;;6.78;100.00;97228.53;5443727;26;20224;-77
2024/04/17 01:26:06;;;;;;;2.23;2.00;;;;;;;6.78;100.00;97229.38;5440953;26;20228;-77
2024/04/17 01:28:34;;;;;;;1.60;1.50;;;;;;;6.78;100.00;97226.75;5442734;26;20566;-77
2024/04/17 01:30:59;;;;;;;3.13;1.50;;;;;;;6.84;100.00;97228.94;5448624;26;20333;-77
2024/04/17 01:33:27;;;;;;;1.93;1.60;;;;;;;6.79;100.00;97231.03;5453802;26;20232;-78
2024/04/17 01:35:53;;;;;;;1.60;1.50;;;;;;;6.78;100.00;97224.13;5455220;26;20306;-77
2024/04/17 01:38:21;;;;;;;1.50;1.40;;;;;;;6.74;100.00;97227.91;5444368;26;20231;-77
2024/04/17 01:40:46;;;;;;;2.70;1.80;;;;;;;6.74;100.00;97222.66;5442476;26;20240;-77
2024/04/17 01:43:17;;;;;;;1.80;1.63;;;;;;;6.75;100.00;97231.38;5443523;26;20333;-79
2024/04/17 01:45:47;;;;;;;1.97;1.77;;;;;;;6.72;100.00;97228.97;5445626;26;20530;-78
2024/04/17 01:48:15;;;;;;;2.83;1.90;;;;;;;6.68;100.00;97228.34;5442737;26;20242;-77
2024/04/17 01:50:41;;;;;;;2.63;1.87;;;;;;;6.70;100.00;97226.44;5442487;26;20299;-77
2024/04/17 01:53:09;;;;;;;2.33;1.87;;;;;;;6.72;100.00;97229.78;5442333;26;20652;-77
2024/04/17 01:55:34;;;;;;;2.83;2.33;;;;;;;6.69;100.00;97235.25;5442523;26;20809;-77
2024/04/17 01:58:02;;;;;;;3.23;2.40;;;;;;;6.73;100.00;97228.84;5442338;26;20231;-77
2024/04/17 02:00:33;;;;;;;2.80;2.40;;;;;;;6.76;100.00;97236.53;5441882;26;20330;-76
2024/04/17 02:03:01;;;;;;;2.90;2.60;;;;;;;6.74;100.00;97233.16;5442723;26;20235;-77
2024/04/17 02:05:29;;;;;;;2.50;2.30;;;;;;;6.77;100.00;97232.94;5442038;25;20236;-77
2024/04/17 02:07:55;;;;;;;4.10;2.70;;;;;;;6.80;100.00;97232.75;5442210;26;20327;-77
2024/04/17 02:10:23;;;;;;;4.27;2.90;;;;;;;6.79;100.00;97240.72;5441475;26;20243;-77
2024/04/17 02:12:48;;;;;;;2.97;2.67;;;;;;;6.80;100.00;97238.00;5442030;26;20232;-77
2024/04/17 02:15:17;;;;;;;3.63;3.00;;;;;;;6.78;100.00;97239.88;5442436;26;20711;-77
2024/04/17 02:17:45;;;;;;;3.47;3.13;;;;;;;6.86;100.00;97242.84;5442468;26;20330;-77
2024/04/17 02:20:13;;;;;;;3.67;3.10;;;;;;;6.80;100.00;97242.41;5441596;26;20691;-76
2024/04/17 02:22:39;;;;;;;3.57;3.27;;;;;;;6.80;100.00;97238.00;5440905;26;20345;-77
2024/04/17 02:25:07;;;;;;;3.67;3.37;;;;;;;6.83;100.00;97248.28;5441523;26;20249;-77
2024/04/17 02:27:33;;;;;;;4.33;3.30;;;;;;;6.85;100.00;97246.38;5441675;26;20620;-77
2024/04/17 02:30:01;;;;;;;3.60;3.07;;;;;;;6.81;100.00;97237.06;5441372;26;20394;-77
2024/04/17 02:32:26;;;;;;;4.23;3.37;;;;;;;6.85;100.00;97242.94;5441690;26;20276;-77
2024/04/17 02:34:57;;;;;;;4.43;3.53;;;;;;;6.84;100.00;97244.69;5441513;26;20317;-77
2024/04/17 02:37:23;;;;;;;4.97;3.67;;;;;;;6.82;100.00;97249.22;5441655;26;20272;-77
2024/04/17 02:39:51;;;;;;;3.80;3.40;;;;;;;6.86;100.00;97252.50;5445170;26;20324;-78
2024/04/17 02:42:16;;;;;;;5.60;3.50;;;;;;;6.85;100.00;97248.19;5445478;26;20276;-77
2024/04/17 02:44:45;;;;;;;4.60;3.40;;;;;;;6.82;100.00;97259.75;5444398;26;20316;-78
2024/04/17 02:47:11;;;;;;;5.30;3.80;;;;;;;6.70;100.00;97263.19;5441624;26;20236;-77
2024/04/17 02:49:39;;;;;;;3.87;3.27;;;;;;;6.61;100.00;97263.81;5443529;26;20283;-77
2024/04/17 02:52:07;;;;;;;5.60;4.17;;;;;;;6.62;100.00;97269.91;5442487;26;20688;-77
2024/04/17 02:54:35;;;;;;;3.97;3.37;;;;;;;6.48;100.00;97276.06;5441782;26;20229;-77
2024/04/17 02:57:01;;;;;;;3.60;2.83;;;;;;;6.12;100.00;97270.59;5443429;26;20381;-77
2024/04/17 02:59:29;;;;;;;4.43;3.30;;;;;;;5.94;100.00;97271.81;5444670;26;20240;-77
2024/04/17 03:01:55;;;;;;;5.17;2.60;;;;;;;5.78;100.00;97284.19;5442811;26;20343;-77
2024/04/17 03:04:23;;;;;;;2.40;2.20;;;;;;;5.67;100.00;97281.41;5442854;26;20227;-77
2024/04/17 03:06:49;;;;;;;4.83;2.93;;;;;;;5.55;100.00;97284.78;5442471;26;20279;-77
2024/04/17 03:09:19;;;;;;;4.10;3.30;;;;;;;5.53;100.00;97297.16;5442489;26;20301;-77
2024/04/17 03:11:46;;;;;;;3.53;3.07;;;;;;;5.53;100.00;97294.53;5442040;26;20357;-77
2024/04/17 03:14:14;;;;;;;5.57;3.70;;;;;;;5.45;100.00;97302.00;5442712;26;20219;-77
2024/04/17 03:16:39;;;;;;;6.23;3.90;;;;;;;5.38;100.00;97299.88;5442172;26;20290;-77
2024/04/17 03:19:07;;;;;;;5.37;3.93;;;;;;;5.39;100.00;97291.09;5442292;26;20330;-77
2024/04/17 03:21:33;;;;;;;6.43;4.40;;;;;;;5.35;100.00;97295.69;5441557;26;20286;-77
2024/04/17 03:24:01;;;;;;;6.33;4.03;;;;;;;5.37;100.00;97293.78;5441523;26;20716;-77
2024/04/17 03:26:29;;;;;;;5.77;4.10;;;;;;;5.43;100.00;97290.78;5442114;26;20325;-77
2024/04/17 03:28:57;;;;;;;5.67;4.13;;;;;;;5.53;100.00;97293.69;5442028;26;20248;-78
2024/04/17 03:31:24;;;;;;;6.73;4.40;;;;;;;5.52;100.00;97295.47;5441968;26;20235;-77
2024/04/17 03:33:52;;;;;;;7.97;5.10;;;;;;;5.57;100.00;97289.94;5454707;26;20262;-77
2024/04/17 03:36:18;;;;;;;6.40;4.57;;;;;;;5.61;100.00;97289.66;5457398;26;20230;-77
2024/04/17 03:38:46;;;;;;;5.13;4.13;;;;;;;5.64;100.00;97299.97;5454608;26;20740;-77
2024/04/17 03:41:14;;;;;;;5.83;4.37;;;;;;;5.63;100.00;97302.66;5442888;26;20364;-77
2024/04/17 03:43:45;;;;;;;6.57;4.50;;;;;;;5.63;100.00;97298.25;5443953;26;20305;-77
2024/04/17 03:46:10;;;;;;;6.43;5.00;;;;;;;5.69;100.00;97297.88;5443601;26;20223;-77
2024/04/17 03:48:38;;;;;;;6.27;4.23;;;;;;;5.69;100.00;97292.63;5442694;26;20326;-77
2024/04/17 03:51:04;;;;;;;6.57;4.40;;;;;;;5.70;100.00;97294.31;5442262;26;20761;-77
2024/04/17 03:53:33;;;;;;;5.40;4.50;;;;;;;5.72;100.00;97300.31;5442937;26;20236;-77
2024/04/17 03:55:58;;;;;;;6.67;4.33;;;;;;;5.70;100.00;97304.81;5442281;26;20226;-77
2024/04/17 03:58:26;;;;;;;6.20;4.67;;;;;;;5.71;100.00;97306.50;5442316;26;20235;-78
2024/04/17 04:00:54;;;;;;;6.17;4.30;;;;;;;5.71;100.00;97311.72;5441844;26;20235;-77
2024/04/17 04:03:22;;;;;;;6.80;5.20;;;;;;;5.67;100.00;97299.75;5442337;26;20227;-77
2024/04/17 04:05:51;;;;;;;7.20;4.83;;;;;;;5.68;100.00;97306.66;5442198;26;20326;-77
2024/04/17 04:08:16;;;;;;;6.07;4.60;;;;;;;5.68;100.00;97301.44;5442181;26;20275;-77
2024/04/17 04:10:44;;;;;;;6.27;4.63;;;;;;;5.68;100.00;97301.44;5441568;26;20333;-77
2024/04/17 04:13:10;;;;;;;7.90;4.70;;;;;;;5.66;100.00;97298.06;5441958;26;20278;-78
2024/04/17 04:15:38;;;;;;;8.33;5.43;;;;;;;5.63;100.00;97300.88;5441684;26;20332;-77
2024/04/17 04:18:07;;;;;;;7.40;5.23;;;;;;;5.67;100.00;97302.38;5441742;26;20276;-77
2024/04/17 04:20:35;;;;;;;7.60;5.00;;;;;;;5.70;100.00;97296.94;5441821;26;20240;-77
2024/04/17 04:23:00;;;;;;;7.10;5.03;;;;;;;5.60;100.00;97314.19;5441569;26;20338;-77
2024/04/17 04:25:29;;;;;;;7.27;5.20;;;;;;;5.59;100.00;97306.41;5441738;26;20231;-77
2024/04/17 04:27:55;;;;;;;8.07;5.47;;;;;;;5.64;100.00;97314.81;5441485;26;20333;-77
2024/04/17 04:30:23;;;;;;;8.33;6.03;;;;;;;5.62;100.00;97317.53;5440775;26;20682;-77
2024/04/17 04:32:48;;;;;;;7.70;4.90;;;;;;;5.59;100.00;97312.50;5441181;26;20293;-77
2024/04/17 04:35:19;;;;;;;7.03;5.13;;;;;;;5.60;100.00;97314.19;5440956;26;20227;-77
2024/04/17 04:37:47;;;;;;;7.87;5.23;;;;;;;5.64;100.00;97310.44;5441059;26;20348;-77
2024/04/17 04:40:13;;;;;;;10.23;6.07;;;;;;;5.66;100.00;97312.94;5440942;26;20240;-77
2024/04/17 04:42:41;;;;;;;9.73;5.53;;;;;;;5.68;100.00;97311.91;5440588;26;20303;-77
2024/04/17 04:45:07;;;;;;;8.50;5.87;;;;;;;5.69;100.00;97313.59;5441070;26;20326;-77
2024/04/17 04:47:35;;;;;;;8.50;5.50;;;;;;;5.67;100.00;97320.72;5444394;26;20239;-77
2024/04/17 04:50:01;;;;;;;9.27;5.60;;;;;;;5.67;100.00;97319.91;5443902;26;20762;-77
2024/04/17 04:52:31;;;;;;;8.83;5.97;;;;;;;5.59;100.00;97328.22;5444257;26;20235;-77
2024/04/17 04:54:57;;;;;;;8.80;5.60;;;;;;;5.55;100.00;97324.09;5444106;26;20318;-78
2024/04/17 04:57:25;;;;;;;8.30;5.63;;;;;;;5.60;100.00;97324.66;5444037;26;20234;-78
2024/04/17 04:59:51;;;;;;;9.67;5.67;;;;;;;5.63;100.00;97329.69;5442987;26;20346;-78
2024/04/17 05:02:19;;;;;;;8.03;5.70;;;;;;;5.70;100.00;97324.94;5443973;26;20227;-78
2024/04/17 05:04:45;;;;;;;7.97;5.33;;;;;;;5.75;100.00;97323.69;5443745;26;20340;-78
2024/04/17 05:07:13;;;;;;;8.53;5.80;;;;;;;5.78;100.00;97327.91;5444036;26;20239;-77
2024/04/17 05:09:41;;;;;;;9.20;6.00;;;;;;;5.80;100.00;97331.31;5443235;26;20315;-77
2024/04/17 05:12:10;;;;;;;9.37;6.10;;;;;;;5.78;100.00;97334.00;5443315;26;20223;-78
2024/04/17 05:14:35;;;;;;;8.73;5.57;;;;;;;5.82;100.00;97335.53;5443569;26;20357;-77
2024/04/17 05:17:03;;;;;;;7.90;5.43;;;;;;;5.84;100.00;97331.03;5443427;26;20243;-78
2024/04/17 05:19:29;;;;;;;8.70;5.80;;;;;;;5.85;100.00;97339.72;5443493;26;20334;-77
2024/04/17 05:21:57;;;;;;;8.77;5.80;;;;;;;5.85;100.00;97337.94;5447571;26;20227;-78
2024/04/17 05:24:23;;;;;;;9.07;5.30;;;;;;;5.91;100.00;97334.94;5448498;26;20278;-78
2024/04/17 05:26:53;;;;;;;9.07;6.03;;;;;;;5.97;100.00;97337.19;5446892;26;20223;-76
2024/04/17 05:29:19;;;;;;;8.03;5.60;;;;;;;5.97;100.00;97336.31;5442288;26;20217;-76
2024/04/17 05:31:48;;;;;;;10.80;6.27;;;;;;;6.03;100.00;97336.78;5442224;26;20224;-76
2024/04/17 05:34:14;;;;;;;9.23;5.83;;;;;;;6.05;100.00;97342.75;5442447;26;20654;-77
2024/04/17 05:36:42;;;;;;;9.97;6.07;;;;;;;6.11;100.00;97341.56;5451000;26;20370;-77
2024/04/17 05:39:07;;;;;;;9.20;6.03;;;;;;;6.16;100.00;97345.56;5456771;26;20231;-77
2024/04/17 05:41:36;;;;;;;13.63;8.43;;;;;;;6.17;100.00;97347.22;5456014;26;20302;-77
2024/04/17 05:44:04;;;;;;;10.87;7.20;;;;;;;6.29;100.00;97349.06;5442553;26;20632;-77
2024/04/17 05:46:32;;;;;;;10.90;7.50;;;;;;;6.20;100.00;97346.19;5442086;26;20227;-77
2024/04/17 05:48:58;;;;;;;10.10;7.13;;;;;;;6.24;100.00;97351.13;5441886;26;20360;-77
2024/04/17 05:51:26;;;;;;;11.87;7.90;;;;;;;6.33;100.00;97347.94;5441568;26;20246;-77
2024/04/17 05:53:51;;;;;;;12.80;8.77;;;;;;;6.40;100.00;97343.97;5442538;26;20224;-77
2024/04/17 05:56:20;;;;;;;11.10;7.47;;;;;;;6.37;100.00;97349.44;5441642;26;20328;-77
2024/04/17 05:58:45;;;;;;;11.97;8.10;;;;;;;6.36;100.00;97346.91;5441814;26;20232;-77
2024/04/17 06:01:16;;;;;;;12.50;7.83;;;;;;;6.43;100.00;97353.44;5441669;26;20255;-77
2024/04/17 06:03:42;;;;;;;10.27;7.33;;;;;;;6.46;100.00;97359.31;5442220;26;20259;-77
2024/04/17 06:06:10;;;;;;;9.93;7.27;;;;;;;6.49;100.00;97361.75;5442463;26;20328;-77
2024/04/17 06:08:35;;;;;;;11.30;6.80;;;;;;;6.42;100.00;97362.25;5441767;26;20750;-77
2024/04/17 06:11:04;;;;;;;9.07;6.07;;;;;;;6.32;100.00;97361.16;5441679;26;20236;-77
2024/04/17 06:13:30;;;;;;;10.53;6.23;;;;;;;6.28;100.00;97375.44;5443853;26;20334;-77
2024/04/17 06:15:58;;;;;;;9.77;6.20;;;;;;;6.28;100.00;97376.25;5441525;26;20235;-75
2024/04/17 06:18:26;;;;;;;9.03;5.93;;;;;;;6.23;100.00;97386.19;5441963;26;20339;-77
2024/04/17 06:20:54;;;;;;;9.20;6.20;;;;;;;6.16;100.00;97377.03;5441720;26;20362;-77
2024/04/17 06:23:20;;;;;;;10.17;6.40;;;;;;;6.27;100.00;97385.06;5441868;26;20686;-77
2024/04/17 06:25:48;;;;;;;8.07;5.50;;;;;;;6.28;100.00;97386.75;5442579;26;20236;-77
2024/04/17 06:28:14;;;;;;;6.43;4.90;;;;;;;6.23;100.00;97390.63;5440413;26;20597;-77
2024/04/17 06:30:42;;;;;;;5.73;4.33;;;;;;;6.13;100.00;97392.97;5441386;26;20232;-76
2024/04/17 06:33:08;;;;;;;7.03;5.13;;;;;;;6.10;100.00;97393.16;5441876;26;20291;-77
2024/04/17 06:35:38;;;;;;;7.37;5.10;;;;;;;6.10;100.00;97402.81;5442105;26;20230;-77
2024/04/17 06:38:04;;;;;;;8.73;5.00;;;;;;;6.11;100.00;97399.25;5441932;26;20282;-77
2024/04/17 06:40:32;;;;;;;7.93;5.33;;;;;;;6.16;100.00;97407.69;5440669;26;20363;-77
2024/04/17 06:42:58;;;;;;;6.47;4.80;;;;;;;6.18;100.00;97401.38;5441748;26;20339;-77
2024/04/17 06:45:26;;;;;;;4.83;4.03;;;;;;;6.24;100.00;97397.53;5441298;26;20728;-77
2024/04/17 06:47:52;;;;;;;6.03;4.20;;;;;;;6.14;100.00;97399.06;5441804;26;20286;-77
2024/04/17 06:50:20;;;;;;;7.57;4.83;;;;;;;6.13;100.00;97406.09;5441360;26;20348;-77
2024/04/17 06:52:49;;;;;;;5.77;3.83;;;;;;;6.11;100.00;97407.94;5440740;26;20231;-77
2024/04/17 06:55:17;;;;;;;5.40;3.70;;;;;;;6.06;100.00;97402.19;5442066;26;20262;-79
2024/04/17 06:57:43;;;;;;;5.00;3.60;;;;;;;6.13;100.00;97402.63;5441602;26;20651;-77
2024/04/17 07:00:12;;;;;;;5.10;3.27;;;;;;;6.09;100.00;97412.47;5439154;26;20262;-77
2024/04/17 07:02:37;;;;;;;6.23;4.13;;;;;;;6.21;100.00;97410.84;5441875;26;20261;-77
2024/04/17 07:05:06;;;;;;;5.00;3.60;;;;;;;6.29;100.00;97409.41;5441671;26;20224;-78
2024/04/17 07:07:32;;;;;;;4.73;3.20;;;;;;;6.31;100.00;97418.06;5444897;26;20310;-77
2024/04/17 07:10:02;;;;;;;4.07;3.10;;;;;;;6.41;100.00;97411.25;5445111;26;20247;-77
2024/04/17 07:12:28;;;;;;;3.97;3.27;;;;;;;6.46;100.00;97416.22;5443559;26;20289;-77
2024/04/17 07:14:56;;;;;;;5.90;3.13;;;;;;;6.47;100.00;97412.66;5441315;26;20223;-77
2024/04/17 07:17:22;;;;;;;4.13;3.03;;;;;;;6.48;100.00;97415.16;5440035;26;20356;-77
2024/04/17 07:19:50;;;;;;;4.00;2.20;;;;;;;6.39;100.00;97418.41;5440789;26;20757;-77
2024/04/17 07:22:16;;;;;;;3.63;3.00;;;;;;;6.28;100.00;97420.03;5442791;26;20276;-77
2024/04/17 07:24:44;;;;;;;3.63;2.70;;;;;;;6.24;100.00;97414.09;5442999;26;20292;-77
2024/04/17 07:27:12;;;;;;;3.60;3.03;;;;;;;6.18;100.00;97417.13;5440710;26;20228;-77
2024/04/17 07:29:41;;;;;;;3.80;3.00;;;;;;;6.26;100.00;97420.13;5441470;26;20379;-77
2024/04/17 07:32:06;;;;;;;4.40;3.50;;;;;;;6.20;100.00;97417.88;5442092;26;20235;-77
2024/04/17 07:34:34;;;;;;;4.80;3.70;;;;;;;6.11;100.00;97423.69;5441607;26;20633;-77
2024/04/17 07:37:00;;;;;;;5.47;3.77;;;;;;;6.20;100.00;97420.50;5447213;25;20419;-77
2024/04/17 07:39:28;;;;;;;5.87;4.27;;;;;;;6.27;100.00;97427.06;5457844;26;20325;-78
2024/04/17 07:41:53;;;;;;;6.63;4.40;;;;;;;6.28;100.00;97418.22;5457501;26;20226;-78
2024/04/17 07:44:25;;;;;;;6.90;4.73;;;;;;;6.31;100.00;97431.19;5451429;26;20232;-78
2024/04/17 07:46:50;;;;;;;8.50;5.50;;;;;;;6.44;100.00;97421.56;5447205;26;20623;-78
2024/04/17 07:49:19;;;;;;;10.47;5.60;;;;;;;6.48;100.00;97422.22;5446856;26;20260;-77
2024/04/17 07:51:44;;;;;;;8.30;5.97;;;;;;;6.57;100.00;97430.34;5446845;26;20294;-78
2024/04/17 07:54:12;;;;;;;9.30;6.43;;;;;;;6.55;100.00;97421.75;5446593;26;20580;-77
2024/04/17 07:56:38;;;;;;;9.77;6.03;;;;;;;6.65;100.00;97430.69;5446249;26;20270;-78
2024/04/17 07:59:06;;;;;;;10.10;6.90;;;;;;;6.85;100.00;97417.09;5449334;26;20557;-79
2024/04/17 08:01:35;;;;;;;8.93;6.40;;;;;;;7.00;100.00;97426.59;5450118;26;20243;-79
2024/04/17 08:04:03;;;;;;;9.77;7.53;;;;;;;7.06;100.00;97426.19;5449409;26;20240;-79
2024/04/17 08:06:28;;;;;;;10.97;6.97;;;;;;;7.10;100.00;97425.06;5450896;26;20271;-79
2024/04/17 08:08:56;;;;;;;11.67;7.57;;;;;;;7.04;100.00;97419.34;5451595;26;20326;-79
2024/04/17 08:11:22;;;;;;;10.30;7.33;;;;;;;7.13;100.00;97424.84;5449568;26;20303;-79
2024/04/17 08:13:50;;;;;;;10.93;6.93;;;;;;;7.27;100.00;97421.31;5450562;26;20297;-79
2024/04/17 08:16:16;;;;;;;11.60;7.40;;;;;;;7.46;100.00;97422.56;5450397;26;21081;-79
2024/04/17 08:18:47;;;;;;;9.40;6.50;;;;;;;7.57;100.00;97425.31;5450254;26;20228;-79
2024/04/17 08:21:13;;;;;;;9.37;6.90;;;;;;;7.58;100.00;97419.09;5448008;26;20236;-79
2024/04/17 08:23:41;;;;;;;8.43;6.70;;;;;;;7.58;100.00;97421.72;5449518;26;20313;-79
2024/04/17 08:26:06;;;;;;;11.13;7.23;;;;;;;7.52;100.00;97420.38;5449093;26;20229;-79
2024/04/17 08:28:34;;;;;;;9.60;6.77;;;;;;;7.57;100.00;97420.03;5449571;26;20642;-79
2024/04/17 08:31:00;;;;;;;9.03;7.13;;;;;;;7.65;100.00;97425.66;5448944;26;20319;-79
2024/04/17 08:33:28;;;;;;;9.57;6.90;;;;;;;7.79;100.00;97428.97;5449592;26;20236;-78
2024/04/17 08:35:56;;;;;;;11.07;6.80;;;;;;;7.80;100.00;97428.06;5450545;26;20224;-81
2024/04/17 08:38:26;;;;;;;7.33;5.77;;;;;;;7.68;100.00;97415.75;5448379;26;20229;-79
2024/04/17 08:40:52;;;;;;;8.10;6.27;;;;;;;7.57;100.00;97420.03;5449732;26;20236;-79
2024/04/17 08:43:26;;;;;;;9.27;6.20;;;;;;;7.70;100.00;97426.16;5449121;26;20266;-79
2024/04/17 08:45:53;;;;;;;7.50;5.67;;;;;;;7.69;100.00;97425.31;5450098;26;20254;-79
2024/04/17 08:48:22;;;;;;;8.43;6.57;;;;;;;7.67;100.00;97423.75;5449677;26;20220;-79
2024/04/17 08:50:49;;;;;;;8.70;6.23;;;;;;;7.51;100.00;97428.34;5449049;26;20321;-80
2024/04/17 08:53:21;;;;;;;11.13;7.23;;;;;;;7.37;100.00;97428.47;5450205;26;20231;-79
2024/04/17 08:55:47;;;;;;;11.30;7.13;;;;;;;7.41;100.00;97427.31;5449036;26;20314;-79
2024/04/17 08:58:16;;;;;;;8.87;6.47;;;;;;;7.38;100.00;97452.00;5446323;26;20239;-80
2024/04/17 09:00:46;;;;;;;7.40;5.73;;;;;;;7.18;100.00;97442.91;5445813;26;20240;-79
2024/04/17 09:03:19;;;;;;;7.10;5.47;;;;;;;6.81;100.00;97439.25;5446164;26;20410;-80
2024/04/17 09:05:45;;;;;;;8.40;5.50;;;;;;;6.74;100.00;97452.88;5446941;26;20280;-81
2024/04/17 09:08:14;;;;;;;8.10;5.77;;;;;;;6.70;100.00;97457.50;5446353;26;20318;-81
2024/04/17 09:10:42;;;;;;;7.80;5.50;;;;;;;6.55;100.00;97455.88;5446189;26;20284;-80
2024/04/17 09:13:11;;;;;;;8.20;5.63;;;;;;;6.62;100.00;97451.91;5447577;26;20332;-80
2024/04/17 09:15:36;;;;;;;6.73;5.77;;;;;;;6.54;100.00;97459.41;5448375;26;20290;-80
2024/04/17 09:18:10;;;;;;;9.90;5.60;;;;;;;6.62;100.00;97461.53;5447698;26;20335;-80
2024/04/17 09:20:36;;;;;;;9.47;6.27;;;;;;;6.71;100.00;97455.72;5447032;26;20283;-80
2024/04/17 09:23:04;;;;;;;8.03;6.50;;;;;;;6.86;100.00;97473.97;5447406;26;20354;-80
2024/04/17 09:25:30;;;;;;;9.10;6.87;;;;;;;6.73;100.00;97467.78;5448010;26;20327;-80
2024/04/17 09:28:01;;;;;;;11.97;7.50;;;;;;;6.66;100.00;97461.25;5447941;26;20596;-80
2024/04/17 09:30:26;;;;;;;8.63;6.63;;;;;;;6.67;100.00;97472.59;5447584;26;20299;-80
2024/04/17 09:32:55;;;;;;;8.53;5.97;;;;;;;6.50;100.00;97476.31;5451762;26;20300;-80
2024/04/17 09:35:22;;;;;;;7.53;6.03;;;;;;;6.39;100.00;97478.75;5452022;26;20227;-80
2024/04/17 09:37:51;;;;;;;9.47;6.07;;;;;;;6.22;100.00;97478.13;5452914;26;20781;-80
2024/04/17 09:40:17;;;;;;;8.43;6.00;;;;;;;6.26;100.00;97475.22;5452081;26;20316;-79
2024/04/17 09:42:46;;;;;;;8.20;5.97;;;;;;;6.34;100.00;97480.81;5463313;26;20238;-80
2024/04/17 09:45:22;;;;;;;7.87;4.83;;;;;;;6.23;100.00;97478.03;5465168;26;20220;-80
2024/04/17 09:47:51;;;;;;;5.93;4.10;;;;;;;6.25;100.00;97478.78;5461854;26;20312;-80
2024/04/17 09:50:17;;;;;;;5.70;4.20;;;;;;;6.27;100.00;97476.91;5458122;26;20238;-80
2024/04/17 09:52:52;;;;;;;7.57;5.03;;;;;;;6.35;100.00;97477.25;5456577;26;20224;-81
2024/04/17 09:55:20;;;;;;;7.10;4.70;;;;;;;6.48;100.00;97480.78;5459253;26;20223;-80
2024/04/17 09:57:50;;;;;;;6.23;4.17;;;;;;;6.55;100.00;97474.25;5457901;26;20266;-80
2024/04/17 10:00:19;;;;;;;5.53;4.20;;;;;;;6.76;100.00;97480.72;5457424;26;20246;-81
2024/04/17 10:02:49;;;;;;;6.07;4.20;;;;;;;6.68;100.00;97475.13;5456536;26;20271;-80
2024/04/17 10:05:16;;;;;;;9.73;5.33;;;;;;;6.69;100.00;97482.06;5454654;26;20335;-81
2024/04/17 10:07:45;;;;;;;6.90;5.00;;;;;;;6.87;100.00;97477.41;5455598;26;20232;-80
2024/04/17 10:10:15;;;;;;;11.43;5.30;;;;;;;7.03;100.00;97481.56;5454115;26;20672;-79
2024/04/17 10:12:45;;;;;;;10.93;5.50;;;;;;;7.13;100.00;97477.38;5454368;26;20274;-80
2024/04/17 10:15:11;;;;;;;9.27;5.67;;;;;;;7.32;100.00;97477.84;5455727;25;20232;-80
2024/04/17 10:17:42;;;;;;;10.10;5.57;;;;;;;7.26;100.00;97469.56;5454053;26;20265;-79
2024/04/17 10:20:26;;;;;;;8.07;5.33;;;;;;;7.30;100.00;97474.50;5453052;26;20280;-79
2024/04/17 10:23:03;;;;;;;9.83;5.43;;;;;;;7.33;100.00;97471.66;5452223;26;20707;-80
2024/04/17 10:25:30;;;;;;;9.00;6.47;;;;;;;7.60;100.00;97477.69;5451004;26;20226;-80
2024/04/17 10:28:03;;;;;;;8.27;5.50;;;;;;;7.63;100.00;97477.47;5451982;25;20306;-80
2024/04/17 10:30:34;;;;;;;10.57;6.20;;;;;;;7.59;100.00;97471.59;5451500;26;20326;-80
2024/04/17 10:33:05;;;;;;;7.40;5.50;;;;;;;7.73;100.00;97468.03;5451571;26;20282;-79
2024/04/17 10:35:32;;;;;;;9.47;5.57;;;;;;;7.78;100.00;97465.94;5451582;26;20232;-80
2024/04/17 10:38:07;;;;;;;7.47;5.13;;;;;;;7.77;100.00;97459.00;5451817;26;20230;-81
2024/04/17 10:40:32;;;;;;;7.33;5.30;;;;;;;7.78;100.00;97456.22;5454137;25;20725;-79
2024/04/17 10:43:00;;;;;;;8.63;5.90;;;;;;;7.89;100.00;97460.78;5451939;26;20228;-80
2024/04/17 10:45:27;;;;;;;8.03;5.70;;;;;;;8.05;100.00;97479.81;5452108;26;20613;-80
2024/04/17 10:48:00;;;;;;;8.00;5.50;;;;;;;8.02;100.00;97464.25;5452571;26;20224;-79
2024/04/17 10:50:29;;;;;;;7.30;5.33;;;;;;;8.08;100.00;97463.81;5451899;26;20234;-79
2024/04/17 10:53:00;;;;;;;13.37;6.17;;;;;;;8.30;100.00;97451.69;5452523;26;20229;-79
2024/04/17 10:55:26;;;;;;;6.87;4.50;;;;;;;8.47;100.00;97439.97;5452597;26;20322;-80
2024/04/17 10:57:56;;;;;;;9.93;5.27;;;;;;;8.55;100.00;97449.00;5452827;26;20278;-79
2024/04/17 11:00:22;;;;;;;10.07;4.57;;;;;;;8.74;100.00;97437.94;5452342;26;20707;-79
2024/04/17 11:02:50;;;;;;;6.63;4.20;;;;;;;8.92;100.00;97426.91;5453809;26;20228;-79
2024/04/17 11:05:15;;;;;;;6.27;3.83;;;;;;;9.11;100.00;97421.97;5453123;26;20587;-80
2024/04/17 11:07:46;;;;;;;7.53;4.07;;;;;;;9.20;100.00;97410.75;5453654;26;20331;-80
2024/04/17 11:10:12;;;;;;;7.33;4.00;;;;;;;9.46;100.00;97406.97;5452032;26;20244;-80
2024/04/17 11:12:40;;;;;;;5.53;4.63;;;;;;;9.53;100.00;97417.88;5452839;26;20305;-80
2024/04/17 11:15:07;;;;;;;7.40;5.00;;;;;;;9.70;100.00;97420.06;5453124;26;20276;-79
2024/04/17 11:17:35;;;;;;;6.97;4.90;;;;;;;9.72;100.00;97391.78;5452665;26;20748;-79
2024/04/17 11:20:02;;;;;;;7.67;5.33;;;;;;;9.76;100.00;97402.00;5451825;25;20286;-80
2024/04/17 11:22:30;;;;;;;10.00;6.00;;;;;;;9.86;100.00;97404.75;5453202;26;20259;-79
2024/04/17 11:24:59;;;;;;;9.17;5.23;;;;;;;9.98;100.00;97412.53;5453265;26;20408;-80
2024/04/17 11:27:27;;;;;;;7.53;5.30;;;;;;;10.22;100.00;97425.66;5452889;26;20262;-80
2024/04/17 11:29:53;;;;;;;9.07;5.60;;;;;;;10.54;100.00;97429.22;5447500;26;20647;-78
2024/04/17 11:32:21;;;;;;;6.87;5.33;;;;;;;10.73;100.00;97397.72;5449218;26;20267;-80